M/y Valhalla — V7KN4 — position and weather

sailwx.info

Track history (hours):
 
Tides and Currents Weather Stations Pressure Air Temp Water Temp Dewpoint Dewpoint Depression Visibility Wind Speed Wind Dir Waves Ship Positions

M/y Valhalla

Last reported at 2018-Jul-19 12:14 UTC. Time now 2018-Jul-19 17:13 UTC.
Position N 26°42' W 080°03'.

Length 40 m; draft 2.1 m.

Type: Pleasure craft. MMSI: 367491360.

Date/timePositionNaut miles runAvg speedWind from/ knotsBaromVisibWave heightAir tempDewpointWater temp
2018-Jul-19 12:14N 26°42' W 080°03'0 0.0
2018-Jul-19 12:00N 26°42' W 080°03'0 0.0
2018-Jul-19 11:30N 26°42' W 080°03'0 0.0
2018-Jul-19 11:00N 26°42' W 080°03'0 0.0
2018-Jul-19 10:29N 26°42' W 080°03'0 0.0
2018-Jul-19 09:22N 26°42' W 080°03'  
2018-Jul-13 17:36N 26°42' W 080°03'0 2.7
2018-Jul-13 17:27N 26°43' W 080°03'6 6.3
2018-Jul-13 16:34N 26°48' W 080°01'119.9
2018-Jul-13 16:30N 26°49' W 080°01'1020.3
2018-Jul-13 16:01N 26°59' W 080°03'24316.0
2018-Jul-13 00:47N 30°54' W 081°15'414.7
2018-Jul-13 00:30N 30°58' W 081°14'814.7
2018-Jul-12 23:58N 31°06' W 081°12'1414.7
2018-Jul-12 23:01N 31°18' W 081°06'414.7
2018-Jul-12 22:46N 31°22' W 081°04'414.7
2018-Jul-12 22:30N 31°25' W 081°02'814.8
2018-Jul-12 21:57N 31°32' W 080°57'2015.0
2018-Jul-12 20:36N 31°49' W 080°43'215.3
2018-Jul-12 20:27N 31°51' W 080°42'715.3
2018-Jul-12 20:00N 31°56' W 080°37'815.5
2018-Jul-12 19:30N 32°01' W 080°30'21714.7
2018-Jul-12 04:45N 34°06' W 076°58'1213.9
2018-Jul-12 03:55N 34°13' W 076°47'613.7
2018-Jul-12 03:29N 34°17' W 076°41'913.7
2018-Jul-12 02:49N 34°23' W 076°33'413.5
2018-Jul-12 02:31N 34°25' W 076°29'31788121.0
2018-Jul-12 02:07N 50°53' W 008°01'213.2
2018-Jul-12 02:00N 50°53' W 007°59'317394397.7
2018-Jul-12 01:58N 34°31' W 076°25'31796936.6
2018-Jul-12 01:31N 50°55' W 007°49'3174878831.2
2018-Jul-12 01:30N 34°38' W 076°23'714.2
2018-Jul-12 01:00N 34°45' W 076°20'317716152.0
2018-Jul-12 00:49N 50°58' W 007°35'513.8
2018-Jul-12 00:27N 51°00' W 007°28'317249650.1
2018-Jul-12 00:23N 34°51' W 076°13'913.6
2018-Jul-11 23:42N 34°57' W 076°04'31882765.4
2018-Jul-11 22:33N 51°11' W 006°49'114.3
2018-Jul-11 22:30N 51°11' W 006°48'714.2
2018-Jul-11 21:59N 51°14' W 006°38'714.4
2018-Jul-11 21:30N 51°17' W 006°28'814.2
2018-Jul-11 20:58N 51°21' W 006°17'714.0
2018-Jul-11 20:30N 51°23' W 006°07'713.8
2018-Jul-11 20:00N 51°25' W 005°57'713.9
2018-Jul-11 19:30N 51°28' W 005°46'914.4
2018-Jul-11 18:54N 51°31' W 005°33'614.2
2018-Jul-11 18:29N 51°34' W 005°25'713.8
2018-Jul-11 18:00N 51°37' W 005°15'510.9
2018-Jul-11 17:30N 51°41' W 005°10'4 7.7
2018-Jul-11 17:00N 51°42' W 005°04'1 2.1
2018-Jul-11 16:28N 51°42' W 005°02'0 0.0
2018-Jul-11 15:52N 51°42' W 005°02'0 0.0
2018-Jul-11 15:28N 51°42' W 005°02'0 0.0
2018-Jul-11 14:55N 51°42' W 005°02'0 0.0
2018-Jul-11 14:28N 51°42' W 005°02'0 0.0
2018-Jul-11 13:58N 51°42' W 005°02'0 0.0
2018-Jul-11 13:28N 51°42' W 005°02'0 0.0
2018-Jul-11 12:58N 51°42' W 005°02'0 0.0
2018-Jul-11 12:28N 51°42' W 005°02'0 0.0
2018-Jul-11 11:58N 51°42' W 005°02'318813503.1
2018-Jul-11 11:44N 36°54' W 076°20'2 8.2
2018-Jul-11 11:30N 36°52' W 076°20'318988999.7
2018-Jul-11 11:28N 51°42' W 005°02'31896877.8
2018-Jul-11 11:01N 36°51' W 076°18'318987626.1
2018-Jul-11 10:58N 51°42' W 005°02'31896877.8
2018-Jul-11 10:31N 36°51' W 076°18'318917107.3
2018-Jul-11 10:19N 51°42' W 005°02'318910158.4
2018-Jul-11 10:01N 36°51' W 076°18'318923426.6
2018-Jul-11 09:52N 51°42' W 005°02'31898044.2
2018-Jul-11 09:29N 36°51' W 076°18'3189883005.7
2018-Jul-11 09:28N 51°42' W 005°02'0 0.0
2018-Jul-11 08:58N 51°42' W 005°02'31891043550.6
2018-Jul-11 08:58N 36°51' W 076°18'0 0.0
2018-Jul-11 08:30N 36°51' W 076°18'3189105312.4
2018-Jul-11 08:28N 51°42' W 005°02'31896673.8
2018-Jul-11 08:00N 36°51' W 076°18'3189143487.3
2018-Jul-11 07:58N 51°42' W 005°02'31896677.7
2018-Jul-11 07:30N 36°51' W 076°18'3189141714.6
2018-Jul-11 07:28N 51°42' W 005°02'31896631.4
2018-Jul-11 06:59N 36°51' W 076°18'3189166362.3
2018-Jul-11 06:58N 51°42' W 005°02'31896681.6
2018-Jul-11 06:30N 36°51' W 076°18'3189139987.7
2018-Jul-11 06:28N 51°42' W 005°02'31896792.3
2018-Jul-11 06:00N 36°51' W 076°18'3189104354.6
2018-Jul-11 05:58N 51°42' W 005°02'31896681.7
2018-Jul-11 05:30N 36°51' W 076°18'3189139988.9
2018-Jul-11 05:28N 51°42' W 005°02'31896448.9
2018-Jul-11 04:59N 36°51' W 076°18'3189573949.0
2018-Jul-11 04:58N 51°42' W 005°02'31896673.9
2018-Jul-11 04:30N 36°51' W 076°18'3189143488.2
2018-Jul-11 04:28N 51°42' W 005°02'31896752.4
2018-Jul-11 04:00N 36°51' W 076°18'3189114790.5
2018-Jul-11 03:58N 51°42' W 005°02'0 0.0
2018-Jul-11 03:28N 51°42' W 005°02'3189425153.9
2018-Jul-11 03:28N 36°51' W 076°18'0 0.0
2018-Jul-11 02:59N 36°51' W 076°18'3189166364.3
2018-Jul-11 02:58N 51°42' W 005°02'31896832.9
2018-Jul-11 02:30N 36°51' W 076°18'318995660.1
2018-Jul-11 02:28N 51°42' W 005°02'31896792.3
2018-Jul-11 02:00N 36°51' W 076°18'3189104354.5
2018-Jul-11 01:58N 51°42' W 005°02'31896873.7
2018-Jul-11 01:31N 36°51' W 076°18'318988300.1
2018-Jul-11 01:28N 51°42' W 005°02'31896448.9
2018-Jul-11 00:59N 36°51' W 076°18'3189573954.0
2018-Jul-11 00:58N 51°42' W 005°02'31896485.3
2018-Jul-11 00:29N 36°51' W 076°18'3189382634.7
2018-Jul-11 00:28N 51°42' W 005°02'31896448.9
2018-Jul-10 23:59N 36°51' W 076°18'3189573952.5
2018-Jul-10 23:58N 51°42' W 005°02'31896796.3
2018-Jul-10 23:30N 36°51' W 076°18'3189103414.2
2018-Jul-10 23:28N 51°42' W 005°02'31896788.3
2018-Jul-10 23:00N 36°51' W 076°18'3189105311.8
2018-Jul-10 22:58N 51°42' W 005°02'31896673.8
2018-Jul-10 22:30N 36°51' W 076°18'3189143487.3
2018-Jul-10 22:28N 51°42' W 005°02'0 0.0
2018-Jul-10 21:58N 51°42' W 005°02'318928697.6
2018-Jul-10 21:52N 36°51' W 076°18'31897265.2
2018-Jul-10 21:25N 51°42' W 005°02'318963772.8
2018-Jul-10 21:22N 36°51' W 076°18'31897971.6
2018-Jul-10 20:58N 51°42' W 005°02'318995658.6
2018-Jul-10 20:56N 36°51' W 076°18'0 0.0
2018-Jul-10 20:30N 36°51' W 076°18'3189113653.6
2018-Jul-10 20:28N 51°42' W 005°02'0 0.0
2018-Jul-10 19:58N 51°42' W 005°02'318921257.5
2018-Jul-10 19:49N 36°51' W 076°18'31899110.3
2018-Jul-10 19:28N 51°42' W 005°02'3189459158.9
2018-Jul-10 19:28N 36°51' W 076°18'0 0.0
2018-Jul-10 19:00N 36°51' W 076°18'318914171.6
2018-Jul-10 18:46N 51°42' W 005°02'318911969.8
2018-Jul-10 18:30N 36°51' W 076°18'318995658.5
2018-Jul-10 18:28N 51°42' W 005°02'0 0.0
2018-Jul-10 17:58N 51°42' W 005°02'3189302078.7
2018-Jul-10 17:58N 36°51' W 076°18'31896514.7
2018-Jul-10 17:28N 51°42' W 005°02'318928769.6
2018-Jul-10 17:22N 36°51' W 076°18'31898193.5
2018-Jul-10 16:58N 51°42' W 005°02'318915143.8
2018-Jul-10 16:46N 36°51' W 076°18'0 0.0
2018-Jul-10 16:29N 36°51' W 076°18'3189573949.1
2018-Jul-10 16:28N 51°42' W 005°02'0 0.0
2018-Jul-10 15:55N 51°42' W 005°02'318952656.0
2018-Jul-10 15:52N 36°51' W 076°18'31898187.6
2018-Jul-10 15:28N 51°42' W 005°02'3189117132.3
2018-Jul-10 15:27N 36°51' W 076°18'31896744.4
2018-Jul-10 14:58N 51°42' W 005°02'3189573958.2
2018-Jul-10 14:58N 36°51' W 076°18'0 0.1
2018-Jul-10 14:29N 36°51' W 076°18'3189521772.7
2018-Jul-10 14:28N 51°42' W 005°02'0 0.0
2018-Jul-10 13:58N 51°42' W 005°02'3189130443.0
2018-Jul-10 13:57N 36°51' W 076°18'0 0.1
2018-Jul-10 13:29N 36°51' W 076°18'3189546623.9
2018-Jul-10 13:28N 51°42' W 005°02'0 0.0
2018-Jul-10 12:58N 51°42' W 005°02'3189286976.9
2018-Jul-10 12:58N 36°51' W 076°18'0 0.0
2018-Jul-10 12:29N 36°51' W 076°18'3189166362.3
2018-Jul-10 12:28N 51°42' W 005°02'31896643.0
2018-Jul-10 12:00N 36°51' W 076°18'3189159431.1
2018-Jul-10 11:58N 51°42' W 005°02'31896792.3
2018-Jul-10 11:30N 36°51' W 076°18'3189104354.4
2018-Jul-10 11:28N 51°42' W 005°02'31896796.3
2018-Jul-10 11:00N 36°51' W 076°18'318939446.8
2018-Jul-10 10:55N 51°42' W 005°02'31897704.0
2018-Jul-10 10:31N 36°51' W 076°18'318988299.9
2018-Jul-10 10:28N 51°42' W 005°02'0 0.0
2018-Jul-10 09:58N 51°42' W 005°02'318923964.6
2018-Jul-10 09:50N 36°51' W 076°18'0 0.0
2018-Jul-10 09:30N 36°51' W 076°18'3189105312.4
2018-Jul-10 09:28N 51°42' W 005°02'31896716.8
2018-Jul-10 09:00N 36°51' W 076°18'3189126143.2
2018-Jul-10 08:58N 51°42' W 005°02'31896559.5
2018-Jul-10 08:29N 36°51' W 076°18'3189229581.0
2018-Jul-10 08:28N 51°42' W 005°02'31896597.1
2018-Jul-10 07:59N 36°51' W 076°18'3189191316.1
2018-Jul-10 07:58N 51°42' W 005°02'31896377.2
2018-Jul-10 07:28N 36°51' W 076°18'31896377.2
2018-Jul-10 06:58N 51°42' W 005°02'3189128977.5
2018-Jul-10 06:57N 36°51' W 076°18'31896712.9
2018-Jul-10 06:28N 51°42' W 005°02'318966738.3
2018-Jul-10 06:25N 36°51' W 076°18'0 0.1
2018-Jul-10 05:58N 36°51' W 076°18'31891275452.2
2018-Jul-10 05:58N 51°42' W 005°02'31896412.9
2018-Jul-10 05:29N 36°51' W 076°18'31891147909.2
2018-Jul-10 05:28N 51°42' W 005°02'31896377.2
2018-Jul-10 04:58N 36°51' W 076°18'0 0.0
2018-Jul-10 04:29N 36°51' W 076°18'318948029.5
2018-Jul-10 04:25N 51°42' W 005°02'31897453.9
2018-Jul-10 04:00N 36°51' W 076°18'3189141716.7
2018-Jul-10 03:58N 51°42' W 005°02'31896681.5
2018-Jul-10 03:30N 36°51' W 076°18'3189139985.7
2018-Jul-10 03:28N 51°42' W 005°02'31896792.3
2018-Jul-10 03:00N 36°51' W 076°18'3189104354.6
2018-Jul-10 02:58N 51°42' W 005°02'31896597.1
2018-Jul-10 02:29N 36°51' W 076°18'3189191316.6
2018-Jul-10 02:28N 51°42' W 005°02'31896756.3
2018-Jul-10 02:00N 36°51' W 076°18'318940850.5
2018-Jul-10 01:55N 51°42' W 005°02'31897425.0
2018-Jul-10 01:30N 36°51' W 076°18'3189155121.8
2018-Jul-10 01:28N 51°42' W 005°02'31896635.3
2018-Jul-10 01:00N 36°51' W 076°18'3189163986.8
2018-Jul-10 00:58N 51°42' W 005°02'31896448.9
2018-Jul-10 00:29N 36°51' W 076°18'3189573953.2
2018-Jul-10 00:28N 51°42' W 005°02'31896792.3
2018-Jul-10 00:00N 36°51' W 076°18'3189104354.4
2018-Jul-09 23:58N 51°42' W 005°02'31896732.6
2018-Jul-09 23:30N 36°51' W 076°18'3189120831.6
2018-Jul-09 23:28N 51°42' W 005°02'31896832.7
2018-Jul-09 23:00N 36°51' W 076°18'318995658.3
2018-Jul-09 22:58N 51°42' W 005°02'31896559.4
2018-Jul-09 22:29N 36°51' W 076°18'3189229579.6
2018-Jul-09 22:28N 51°42' W 005°02'31896792.3
2018-Jul-09 22:00N 36°51' W 076°18'3189104354.9
2018-Jul-09 21:58N 51°42' W 005°02'31896792.4
2018-Jul-09 21:30N 36°51' W 076°18'3189104355.2
2018-Jul-09 21:28N 51°42' W 005°02'0 0.0
2018-Jul-09 20:58N 51°42' W 005°02'318928697.5
2018-Jul-09 20:52N 36°51' W 076°18'0 0.0
2018-Jul-09 20:30N 36°51' W 076°18'3189105311.9
2018-Jul-09 20:28N 51°42' W 005°02'31896832.8
2018-Jul-09 20:00N 36°51' W 076°18'318995658.5
2018-Jul-09 19:58N 51°42' W 005°02'31896873.6
2018-Jul-09 19:31N 36°51' W 076°18'318988299.9
2018-Jul-09 19:28N 51°42' W 005°02'31896832.7
2018-Jul-09 19:00N 36°51' W 076°18'318996461.7
2018-Jul-09 18:58N 51°42' W 005°02'31896873.7
2018-Jul-09 18:31N 36°51' W 076°18'318987626.2
2018-Jul-09 18:28N 51°42' W 005°02'31896828.7
2018-Jul-09 18:00N 36°51' W 076°18'318923964.5
2018-Jul-09 17:52N 51°42' W 005°02'31898503.0
2018-Jul-09 17:30N 36°51' W 076°18'3189127545.0
2018-Jul-09 17:28N 51°42' W 005°02'31896525.9
2018-Jul-09 16:59N 36°51' W 076°18'3189279977.3
2018-Jul-09 16:58N 51°42' W 005°02'31896752.4
2018-Jul-09 16:30N 36°51' W 076°18'3189114790.2
2018-Jul-09 16:28N 51°42' W 005°02'31896828.7
2018-Jul-09 16:00N 36°51' W 076°18'318996462.4
2018-Jul-09 15:58N 51°42' W 005°02'31896828.7
2018-Jul-09 15:30N 36°51' W 076°18'318923964.6
2018-Jul-09 15:22N 51°42' W 005°02'0 0.0
2018-Jul-09 14:58N 51°42' W 005°02'0 0.0
2018-Jul-09 14:28N 51°42' W 005°02'318943980.8
2018-Jul-09 14:24N 36°51' W 076°18'0 0.0
2018-Jul-09 14:01N 36°51' W 076°18'318988300.1
2018-Jul-09 13:58N 51°42' W 005°02'31896828.7
2018-Jul-09 13:30N 36°51' W 076°18'318996462.7
2018-Jul-09 13:28N 51°42' W 005°02'31896873.7
2018-Jul-09 13:01N 36°51' W 076°18'318988300.4
2018-Jul-09 12:58N 51°42' W 005°02'31896832.8
2018-Jul-09 12:30N 36°51' W 076°18'318995659.0
2018-Jul-09 12:28N 51°42' W 005°02'  
Track history (hours):
 
Tides and Currents Weather Stations Pressure Air Temp Water Temp Dewpoint Dewpoint Depression Visibility Wind Speed Wind Dir Waves Ship Positions

M/y Valhalla

Last reported at 2018-Jul-19 12:14 UTC. Time now 2018-Jul-19 17:13 UTC.
Position N 26°42' W 080°03'.

Length 40 m; draft 2.1 m.

Type: Pleasure craft. MMSI: 367491360.

Date/timePositionNaut miles runAvg speedWind from/ knotsBaromVisibWave heightAir tempDewpointWater temp
2018-Jul-19 12:14N 26°42' W 080°03'0 0.0
2018-Jul-19 12:00N 26°42' W 080°03'0 0.0
2018-Jul-19 11:30N 26°42' W 080°03'0 0.0
2018-Jul-19 11:00N 26°42' W 080°03'0 0.0
2018-Jul-19 10:29N 26°42' W 080°03'0 0.0
2018-Jul-19 09:22N 26°42' W 080°03'  
2018-Jul-13 17:36N 26°42' W 080°03'0 2.7
2018-Jul-13 17:27N 26°43' W 080°03'6 6.3
2018-Jul-13 16:34N 26°48' W 080°01'119.9
2018-Jul-13 16:30N 26°49' W 080°01'1020.3
2018-Jul-13 16:01N 26°59' W 080°03'24316.0
2018-Jul-13 00:47N 30°54' W 081°15'414.7
2018-Jul-13 00:30N 30°58' W 081°14'814.7
2018-Jul-12 23:58N 31°06' W 081°12'1414.7
2018-Jul-12 23:01N 31°18' W 081°06'414.7
2018-Jul-12 22:46N 31°22' W 081°04'414.7
2018-Jul-12 22:30N 31°25' W 081°02'814.8
2018-Jul-12 21:57N 31°32' W 080°57'2015.0
2018-Jul-12 20:36N 31°49' W 080°43'215.3
2018-Jul-12 20:27N 31°51' W 080°42'715.3
2018-Jul-12 20:00N 31°56' W 080°37'815.5
2018-Jul-12 19:30N 32°01' W 080°30'21714.7
2018-Jul-12 04:45N 34°06' W 076°58'1213.9
2018-Jul-12 03:55N 34°13' W 076°47'613.7
2018-Jul-12 03:29N 34°17' W 076°41'913.7
2018-Jul-12 02:49N 34°23' W 076°33'413.5
2018-Jul-12 02:31N 34°25' W 076°29'31788121.0
2018-Jul-12 02:07N 50°53' W 008°01'213.2
2018-Jul-12 02:00N 50°53' W 007°59'317394397.7
2018-Jul-12 01:58N 34°31' W 076°25'31796936.6
2018-Jul-12 01:31N 50°55' W 007°49'3174878831.2
2018-Jul-12 01:30N 34°38' W 076°23'714.2
2018-Jul-12 01:00N 34°45' W 076°20'317716152.0
2018-Jul-12 00:49N 50°58' W 007°35'513.8
2018-Jul-12 00:27N 51°00' W 007°28'317249650.1
2018-Jul-12 00:23N 34°51' W 076°13'913.6
2018-Jul-11 23:42N 34°57' W 076°04'31882765.4
2018-Jul-11 22:33N 51°11' W 006°49'114.3
2018-Jul-11 22:30N 51°11' W 006°48'714.2
2018-Jul-11 21:59N 51°14' W 006°38'714.4
2018-Jul-11 21:30N 51°17' W 006°28'814.2
2018-Jul-11 20:58N 51°21' W 006°17'714.0
2018-Jul-11 20:30N 51°23' W 006°07'713.8
2018-Jul-11 20:00N 51°25' W 005°57'713.9
2018-Jul-11 19:30N 51°28' W 005°46'914.4
2018-Jul-11 18:54N 51°31' W 005°33'614.2
2018-Jul-11 18:29N 51°34' W 005°25'713.8
2018-Jul-11 18:00N 51°37' W 005°15'510.9
2018-Jul-11 17:30N 51°41' W 005°10'4 7.7
2018-Jul-11 17:00N 51°42' W 005°04'1 2.1
2018-Jul-11 16:28N 51°42' W 005°02'0 0.0
2018-Jul-11 15:52N 51°42' W 005°02'0 0.0
2018-Jul-11 15:28N 51°42' W 005°02'0 0.0
2018-Jul-11 14:55N 51°42' W 005°02'0 0.0
2018-Jul-11 14:28N 51°42' W 005°02'0 0.0
2018-Jul-11 13:58N 51°42' W 005°02'0 0.0
2018-Jul-11 13:28N 51°42' W 005°02'0 0.0
2018-Jul-11 12:58N 51°42' W 005°02'0 0.0
2018-Jul-11 12:28N 51°42' W 005°02'0 0.0
2018-Jul-11 11:58N 51°42' W 005°02'318813503.1
2018-Jul-11 11:44N 36°54' W 076°20'2 8.2
2018-Jul-11 11:30N 36°52' W 076°20'318988999.7
2018-Jul-11 11:28N 51°42' W 005°02'31896877.8
2018-Jul-11 11:01N 36°51' W 076°18'318987626.1
2018-Jul-11 10:58N 51°42' W 005°02'31896877.8
2018-Jul-11 10:31N 36°51' W 076°18'318917107.3
2018-Jul-11 10:19N 51°42' W 005°02'318910158.4
2018-Jul-11 10:01N 36°51' W 076°18'318923426.6
2018-Jul-11 09:52N 51°42' W 005°02'31898044.2
2018-Jul-11 09:29N 36°51' W 076°18'3189883005.7
2018-Jul-11 09:28N 51°42' W 005°02'0 0.0
2018-Jul-11 08:58N 51°42' W 005°02'31891043550.6
2018-Jul-11 08:58N 36°51' W 076°18'0 0.0
2018-Jul-11 08:30N 36°51' W 076°18'3189105312.4
2018-Jul-11 08:28N 51°42' W 005°02'31896673.8
2018-Jul-11 08:00N 36°51' W 076°18'3189143487.3
2018-Jul-11 07:58N 51°42' W 005°02'31896677.7
2018-Jul-11 07:30N 36°51' W 076°18'3189141714.6
2018-Jul-11 07:28N 51°42' W 005°02'31896631.4
2018-Jul-11 06:59N 36°51' W 076°18'3189166362.3
2018-Jul-11 06:58N 51°42' W 005°02'31896681.6
2018-Jul-11 06:30N 36°51' W 076°18'3189139987.7
2018-Jul-11 06:28N 51°42' W 005°02'31896792.3
2018-Jul-11 06:00N 36°51' W 076°18'3189104354.6
2018-Jul-11 05:58N 51°42' W 005°02'31896681.7
2018-Jul-11 05:30N 36°51' W 076°18'3189139988.9
2018-Jul-11 05:28N 51°42' W 005°02'31896448.9
2018-Jul-11 04:59N 36°51' W 076°18'3189573949.0
2018-Jul-11 04:58N 51°42' W 005°02'31896673.9
2018-Jul-11 04:30N 36°51' W 076°18'3189143488.2
2018-Jul-11 04:28N 51°42' W 005°02'31896752.4
2018-Jul-11 04:00N 36°51' W 076°18'3189114790.5
2018-Jul-11 03:58N 51°42' W 005°02'0 0.0
2018-Jul-11 03:28N 51°42' W 005°02'3189425153.9
2018-Jul-11 03:28N 36°51' W 076°18'0 0.0
2018-Jul-11 02:59N 36°51' W 076°18'3189166364.3
2018-Jul-11 02:58N 51°42' W 005°02'31896832.9
2018-Jul-11 02:30N 36°51' W 076°18'318995660.1
2018-Jul-11 02:28N 51°42' W 005°02'31896792.3
2018-Jul-11 02:00N 36°51' W 076°18'3189104354.5
2018-Jul-11 01:58N 51°42' W 005°02'31896873.7
2018-Jul-11 01:31N 36°51' W 076°18'318988300.1
2018-Jul-11 01:28N 51°42' W 005°02'31896448.9
2018-Jul-11 00:59N 36°51' W 076°18'3189573954.0
2018-Jul-11 00:58N 51°42' W 005°02'31896485.3
2018-Jul-11 00:29N 36°51' W 076°18'3189382634.7
2018-Jul-11 00:28N 51°42' W 005°02'31896448.9
2018-Jul-10 23:59N 36°51' W 076°18'3189573952.5
2018-Jul-10 23:58N 51°42' W 005°02'31896796.3
2018-Jul-10 23:30N 36°51' W 076°18'3189103414.2
2018-Jul-10 23:28N 51°42' W 005°02'31896788.3
2018-Jul-10 23:00N 36°51' W 076°18'3189105311.8
2018-Jul-10 22:58N 51°42' W 005°02'31896673.8
2018-Jul-10 22:30N 36°51' W 076°18'3189143487.3
2018-Jul-10 22:28N 51°42' W 005°02'0 0.0
2018-Jul-10 21:58N 51°42' W 005°02'318928697.6
2018-Jul-10 21:52N 36°51' W 076°18'31897265.2
2018-Jul-10 21:25N 51°42' W 005°02'318963772.8
2018-Jul-10 21:22N 36°51' W 076°18'31897971.6
2018-Jul-10 20:58N 51°42' W 005°02'318995658.6
2018-Jul-10 20:56N 36°51' W 076°18'0 0.0
2018-Jul-10 20:30N 36°51' W 076°18'3189113653.6
2018-Jul-10 20:28N 51°42' W 005°02'0 0.0
2018-Jul-10 19:58N 51°42' W 005°02'318921257.5
2018-Jul-10 19:49N 36°51' W 076°18'31899110.3
2018-Jul-10 19:28N 51°42' W 005°02'3189459158.9
2018-Jul-10 19:28N 36°51' W 076°18'0 0.0
2018-Jul-10 19:00N 36°51' W 076°18'318914171.6
2018-Jul-10 18:46N 51°42' W 005°02'318911969.8
2018-Jul-10 18:30N 36°51' W 076°18'318995658.5
2018-Jul-10 18:28N 51°42' W 005°02'0 0.0
2018-Jul-10 17:58N 51°42' W 005°02'3189302078.7
2018-Jul-10 17:58N 36°51' W 076°18'31896514.7
2018-Jul-10 17:28N 51°42' W 005°02'318928769.6
2018-Jul-10 17:22N 36°51' W 076°18'31898193.5
2018-Jul-10 16:58N 51°42' W 005°02'318915143.8
2018-Jul-10 16:46N 36°51' W 076°18'0 0.0
2018-Jul-10 16:29N 36°51' W 076°18'3189573949.1
2018-Jul-10 16:28N 51°42' W 005°02'0 0.0
2018-Jul-10 15:55N 51°42' W 005°02'318952656.0
2018-Jul-10 15:52N 36°51' W 076°18'31898187.6
2018-Jul-10 15:28N 51°42' W 005°02'3189117132.3
2018-Jul-10 15:27N 36°51' W 076°18'31896744.4
2018-Jul-10 14:58N 51°42' W 005°02'3189573958.2
2018-Jul-10 14:58N 36°51' W 076°18'0 0.1
2018-Jul-10 14:29N 36°51' W 076°18'3189521772.7
2018-Jul-10 14:28N 51°42' W 005°02'0 0.0
2018-Jul-10 13:58N 51°42' W 005°02'3189130443.0
2018-Jul-10 13:57N 36°51' W 076°18'0 0.1
2018-Jul-10 13:29N 36°51' W 076°18'3189546623.9
2018-Jul-10 13:28N 51°42' W 005°02'0 0.0
2018-Jul-10 12:58N 51°42' W 005°02'3189286976.9
2018-Jul-10 12:58N 36°51' W 076°18'0 0.0
2018-Jul-10 12:29N 36°51' W 076°18'3189166362.3
2018-Jul-10 12:28N 51°42' W 005°02'31896643.0
2018-Jul-10 12:00N 36°51' W 076°18'3189159431.1
2018-Jul-10 11:58N 51°42' W 005°02'31896792.3
2018-Jul-10 11:30N 36°51' W 076°18'3189104354.4
2018-Jul-10 11:28N 51°42' W 005°02'31896796.3
2018-Jul-10 11:00N 36°51' W 076°18'318939446.8
2018-Jul-10 10:55N 51°42' W 005°02'31897704.0
2018-Jul-10 10:31N 36°51' W 076°18'318988299.9
2018-Jul-10 10:28N 51°42' W 005°02'0 0.0
2018-Jul-10 09:58N 51°42' W 005°02'318923964.6
2018-Jul-10 09:50N 36°51' W 076°18'0 0.0
2018-Jul-10 09:30N 36°51' W 076°18'3189105312.4
2018-Jul-10 09:28N 51°42' W 005°02'31896716.8
2018-Jul-10 09:00N 36°51' W 076°18'3189126143.2
2018-Jul-10 08:58N 51°42' W 005°02'31896559.5
2018-Jul-10 08:29N 36°51' W 076°18'3189229581.0
2018-Jul-10 08:28N 51°42' W 005°02'31896597.1
2018-Jul-10 07:59N 36°51' W 076°18'3189191316.1
2018-Jul-10 07:58N 51°42' W 005°02'31896377.2
2018-Jul-10 07:28N 36°51' W 076°18'31896377.2
2018-Jul-10 06:58N 51°42' W 005°02'3189128977.5
2018-Jul-10 06:57N 36°51' W 076°18'31896712.9
2018-Jul-10 06:28N 51°42' W 005°02'318966738.3
2018-Jul-10 06:25N 36°51' W 076°18'0 0.1
2018-Jul-10 05:58N 36°51' W 076°18'31891275452.2
2018-Jul-10 05:58N 51°42' W 005°02'31896412.9
2018-Jul-10 05:29N 36°51' W 076°18'31891147909.2
2018-Jul-10 05:28N 51°42' W 005°02'31896377.2
2018-Jul-10 04:58N 36°51' W 076°18'0 0.0
2018-Jul-10 04:29N 36°51' W 076°18'318948029.5
2018-Jul-10 04:25N 51°42' W 005°02'31897453.9
2018-Jul-10 04:00N 36°51' W 076°18'3189141716.7
2018-Jul-10 03:58N 51°42' W 005°02'31896681.5
2018-Jul-10 03:30N 36°51' W 076°18'3189139985.7
2018-Jul-10 03:28N 51°42' W 005°02'31896792.3
2018-Jul-10 03:00N 36°51' W 076°18'3189104354.6
2018-Jul-10 02:58N 51°42' W 005°02'31896597.1
2018-Jul-10 02:29N 36°51' W 076°18'3189191316.6
2018-Jul-10 02:28N 51°42' W 005°02'31896756.3
2018-Jul-10 02:00N 36°51' W 076°18'318940850.5
2018-Jul-10 01:55N 51°42' W 005°02'31897425.0
2018-Jul-10 01:30N 36°51' W 076°18'3189155121.8
2018-Jul-10 01:28N 51°42' W 005°02'31896635.3
2018-Jul-10 01:00N 36°51' W 076°18'3189163986.8
2018-Jul-10 00:58N 51°42' W 005°02'31896448.9
2018-Jul-10 00:29N 36°51' W 076°18'3189573953.2
2018-Jul-10 00:28N 51°42' W 005°02'31896792.3
2018-Jul-10 00:00N 36°51' W 076°18'3189104354.4
2018-Jul-09 23:58N 51°42' W 005°02'31896732.6
2018-Jul-09 23:30N 36°51' W 076°18'3189120831.6
2018-Jul-09 23:28N 51°42' W 005°02'31896832.7
2018-Jul-09 23:00N 36°51' W 076°18'318995658.3
2018-Jul-09 22:58N 51°42' W 005°02'31896559.4
2018-Jul-09 22:29N 36°51' W 076°18'3189229579.6
2018-Jul-09 22:28N 51°42' W 005°02'31896792.3
2018-Jul-09 22:00N 36°51' W 076°18'3189104354.9
2018-Jul-09 21:58N 51°42' W 005°02'31896792.4
2018-Jul-09 21:30N 36°51' W 076°18'3189104355.2
2018-Jul-09 21:28N 51°42' W 005°02'0 0.0
2018-Jul-09 20:58N 51°42' W 005°02'318928697.5
2018-Jul-09 20:52N 36°51' W 076°18'0 0.0
2018-Jul-09 20:30N 36°51' W 076°18'3189105311.9
2018-Jul-09 20:28N 51°42' W 005°02'31896832.8
2018-Jul-09 20:00N 36°51' W 076°18'318995658.5
2018-Jul-09 19:58N 51°42' W 005°02'31896873.6
2018-Jul-09 19:31N 36°51' W 076°18'318988299.9
2018-Jul-09 19:28N 51°42' W 005°02'31896832.7
2018-Jul-09 19:00N 36°51' W 076°18'318996461.7
2018-Jul-09 18:58N 51°42' W 005°02'31896873.7
2018-Jul-09 18:31N 36°51' W 076°18'318987626.2
2018-Jul-09 18:28N 51°42' W 005°02'31896828.7
2018-Jul-09 18:00N 36°51' W 076°18'318923964.5
2018-Jul-09 17:52N 51°42' W 005°02'31898503.0
2018-Jul-09 17:30N 36°51' W 076°18'3189127545.0
2018-Jul-09 17:28N 51°42' W 005°02'31896525.9
2018-Jul-09 16:59N 36°51' W 076°18'3189279977.3
2018-Jul-09 16:58N 51°42' W 005°02'31896752.4
2018-Jul-09 16:30N 36°51' W 076°18'3189114790.2
2018-Jul-09 16:28N 51°42' W 005°02'31896828.7
2018-Jul-09 16:00N 36°51' W 076°18'318996462.4
2018-Jul-09 15:58N 51°42' W 005°02'31896828.7
2018-Jul-09 15:30N 36°51' W 076°18'318923964.6
2018-Jul-09 15:22N 51°42' W 005°02'0 0.0
2018-Jul-09 14:58N 51°42' W 005°02'0 0.0
2018-Jul-09 14:28N 51°42' W 005°02'318943980.8
2018-Jul-09 14:24N 36°51' W 076°18'0 0.0
2018-Jul-09 14:01N 36°51' W 076°18'318988300.1
2018-Jul-09 13:58N 51°42' W 005°02'31896828.7
2018-Jul-09 13:30N 36°51' W 076°18'318996462.7
2018-Jul-09 13:28N 51°42' W 005°02'31896873.7
2018-Jul-09 13:01N 36°51' W 076°18'318988300.4
2018-Jul-09 12:58N 51°42' W 005°02'31896832.8
2018-Jul-09 12:30N 36°51' W 076°18'318995659.0
2018-Jul-09 12:28N 51°42' W 005°02'  

Dump ship's entire track history